Time;durP1;ratioP1;P1;durP2;ratioP2;P2;SDS_P1;SDS_P2;PMS_P1;PMS_P2;Temp;Humidity;BMP_temperature;BMP_pressure;BME280_temperature;BME280_humidity;BME280_pressure;Samples;Min_cycle;Max_cycle;Signal;HPM_P1;HPM_P2
2023/07/04 00:01:24;;;;;;;6.90;4.80;;;;;;;25.14;65.18;101398.73;106977;1263;26490;-50
2023/07/04 00:03:55;;;;;;;6.70;4.90;;;;;;;25.12;65.06;101401.53;106783;1253;25451;-50
2023/07/04 00:06:25;;;;;;;5.60;4.10;;;;;;;25.10;65.26;101407.14;106709;1272;25327;-50
2023/07/04 00:08:52;;;;;;;7.30;5.00;;;;;;;25.09;65.28;101406.48;107076;1266;22529;-50
2023/07/04 00:11:19;;;;;;;5.10;4.60;;;;;;;25.08;65.34;101408.33;106990;1266;25482;-47
2023/07/04 00:13:47;;;;;;;9.80;5.60;;;;;;;25.07;65.30;101408.45;107144;1263;25341;-50
2023/07/04 00:16:14;;;;;;;6.00;4.40;;;;;;;25.06;65.19;101412.09;107175;1260;25448;-47
2023/07/04 00:18:41;;;;;;;5.70;4.60;;;;;;;25.04;65.33;101412.23;107147;1253;25340;-47
2023/07/04 00:21:14;;;;;;;8.40;4.10;;;;;;;25.02;65.31;101410.54;107088;1260;25344;-47
2023/07/04 00:23:45;;;;;;;7.90;5.00;;;;;;;25.01;65.22;101410.44;107134;1267;22517;-47
2023/07/04 00:26:16;;;;;;;6.70;4.70;;;;;;;24.99;65.19;101410.95;107186;1260;22527;-49
2023/07/04 00:28:43;;;;;;;5.70;4.30;;;;;;;24.98;65.32;101415.50;107097;1263;24202;-50
2023/07/04 00:31:14;;;;;;;5.60;5.00;;;;;;;24.96;65.40;101412.93;107155;1260;25372;-49
2023/07/04 00:33:40;;;;;;;5.30;4.40;;;;;;;24.95;65.48;101411.08;107206;1260;22629;-47
2023/07/04 00:36:09;;;;;;;4.60;4.20;;;;;;;24.93;65.55;101409.10;107238;1263;25328;-47
2023/07/04 00:38:38;;;;;;;4.60;3.90;;;;;;;24.91;65.54;101407.98;107168;1260;22533;-47
2023/07/04 00:41:11;;;;;;;4.90;4.50;;;;;;;24.91;65.53;101408.73;107136;1263;25355;-47
2023/07/04 00:44:08;;;;;;;4.90;4.20;;;;;;;24.90;65.63;101409.13;106905;1263;24488;-48
2023/07/04 00:47:10;;;;;;;5.10;4.60;;;;;;;24.89;65.54;101411.36;106908;1272;25381;-47
2023/07/04 00:49:42;;;;;;;6.50;5.10;;;;;;;24.87;65.79;101411.86;106808;1262;25365;-48
2023/07/04 00:52:13;;;;;;;8.30;4.70;;;;;;;24.86;65.97;101419.56;106890;1257;25469;-48
2023/07/04 00:54:52;;;;;;;6.20;4.40;;;;;;;24.84;66.00;101422.35;107214;1263;22814;-48
2023/07/04 00:57:21;;;;;;;7.10;4.90;;;;;;;24.83;65.84;101421.38;107112;1260;22535;-48
2023/07/04 00:59:51;;;;;;;5.10;4.70;;;;;;;24.81;65.85;101424.65;107178;1261;25379;-48
2023/07/04 01:02:22;;;;;;;4.40;3.80;;;;;;;24.80;65.83;101423.31;107093;1263;24384;-48
2023/07/04 01:04:50;;;;;;;5.50;4.40;;;;;;;24.79;65.74;101426.09;107140;1263;25349;-47
2023/07/04 01:07:31;;;;;;;4.10;3.80;;;;;;;24.77;65.53;101424.96;106884;1262;25340;-48
2023/07/04 01:10:03;;;;;;;4.50;4.10;;;;;;;24.76;65.45;101425.63;107088;1263;25337;-48
2023/07/04 01:12:30;;;;;;;5.00;4.40;;;;;;;24.74;65.36;101431.38;107161;1260;22536;-48
2023/07/04 01:15:01;;;;;;;7.20;4.60;;;;;;;24.73;65.42;101431.65;107120;1260;25376;-48
2023/07/04 01:17:29;;;;;;;4.60;4.10;;;;;;;24.71;65.34;101429.11;107037;1263;24603;-48
2023/07/04 01:19:57;;;;;;;4.20;3.80;;;;;;;24.70;65.23;101435.90;107203;1260;25318;-48
2023/07/04 01:22:33;;;;;;;4.40;4.00;;;;;;;24.69;65.03;101434.39;107081;1260;25405;-48
2023/07/04 01:25:10;;;;;;;7.30;4.80;;;;;;;24.68;65.07;101438.91;107047;1251;25363;-48
2023/07/04 01:27:37;;;;;;;7.20;4.70;;;;;;;24.66;65.21;101445.41;107057;1257;22513;-48
2023/07/04 01:30:06;;;;;;;4.60;4.20;;;;;;;24.65;65.00;101450.10;106829;1263;25449;-48
2023/07/04 01:32:36;;;;;;;5.30;4.70;;;;;;;24.63;64.87;101452.00;106974;1257;25481;-48
2023/07/04 01:35:05;;;;;;;6.60;4.20;;;;;;;24.61;64.88;101451.11;107111;1260;25385;-47
2023/07/04 01:37:32;;;;;;;5.20;4.40;;;;;;;24.59;64.85;101455.81;107119;1266;22529;-48
2023/07/04 01:39:59;;;;;;;5.40;4.90;;;;;;;24.58;64.95;101457.86;106878;1267;25404;-48
2023/07/04 01:42:31;;;;;;;4.90;4.30;;;;;;;24.57;64.84;101462.05;107185;1260;22526;-48
2023/07/04 01:45:01;;;;;;;5.80;4.80;;;;;;;24.55;64.81;101461.30;107153;1260;25356;-48
2023/07/04 01:47:28;;;;;;;4.90;4.40;;;;;;;24.53;64.86;101467.41;106975;1266;25360;-48
2023/07/04 01:49:55;;;;;;;4.20;3.80;;;;;;;24.52;64.79;101463.81;107107;1266;22530;-48
2023/07/04 01:52:22;;;;;;;4.40;4.00;;;;;;;24.50;64.65;101469.05;106917;1269;24218;-47
2023/07/04 01:54:49;;;;;;;7.30;4.90;;;;;;;24.49;64.45;101467.52;106922;1269;25331;-47
2023/07/04 01:57:16;;;;;;;5.70;4.60;;;;;;;24.49;64.47;101466.15;107044;1263;25331;-47
2023/07/04 01:59:44;;;;;;;5.80;4.90;;;;;;;24.48;64.53;101466.73;107089;1263;25407;-48
2023/07/04 02:02:11;;;;;;;7.00;4.50;;;;;;;24.47;64.54;101463.93;107023;1266;25445;-47
2023/07/04 02:04:38;;;;;;;6.10;4.80;;;;;;;24.47;64.76;101467.89;107120;1253;25384;-47
2023/07/04 02:07:05;;;;;;;6.80;5.00;;;;;;;24.46;64.77;101470.05;107164;1266;25331;-47
2023/07/04 02:09:32;;;;;;;9.30;5.10;;;;;;;24.46;64.89;101469.71;107135;1265;25349;-48
2023/07/04 02:12:01;;;;;;;5.90;4.70;;;;;;;24.46;65.13;101468.13;107156;1263;22590;-48
2023/07/04 02:14:28;;;;;;;4.80;4.30;;;;;;;24.45;65.21;101466.05;106933;1267;25321;-48
2023/07/04 02:16:55;;;;;;;4.80;4.10;;;;;;;24.46;65.44;101464.41;107185;1266;25328;-50
2023/07/04 02:19:22;;;;;;;5.00;4.50;;;;;;;24.46;65.39;101464.22;107060;1263;25356;-49
2023/07/04 02:21:49;;;;;;;5.60;3.90;;;;;;;24.46;65.28;101469.54;106868;1267;25405;-48
2023/07/04 02:24:17;;;;;;;4.80;4.20;;;;;;;24.45;65.29;101471.34;107159;1263;24213;-47
2023/07/04 02:26:43;;;;;;;5.50;4.00;;;;;;;24.45;65.33;101469.95;107142;1258;22530;-48
2023/07/04 02:29:10;;;;;;;5.10;4.50;;;;;;;24.44;65.52;101466.80;107146;1267;25337;-47
2023/07/04 02:31:38;;;;;;;5.90;4.40;;;;;;;24.44;65.49;101466.84;107135;1263;22527;-47
2023/07/04 02:34:07;;;;;;;5.00;4.50;;;;;;;24.44;65.56;101477.49;107026;1267;25312;-48
2023/07/04 02:36:35;;;;;;;5.40;3.70;;;;;;;24.43;65.39;101484.48;107139;1263;25312;-48
2023/07/04 02:39:02;;;;;;;4.40;3.90;;;;;;;24.41;65.23;101486.89;107097;1263;25430;-47
2023/07/04 02:41:29;;;;;;;4.60;4.00;;;;;;;24.40;65.22;101490.70;107180;1266;25347;-47
2023/07/04 02:43:59;;;;;;;8.30;3.40;;;;;;;24.39;65.46;101489.70;107221;1251;22592;-48
2023/07/04 02:46:26;;;;;;;4.50;4.10;;;;;;;24.37;65.83;101493.36;107112;1251;25268;-47
2023/07/04 02:48:56;;;;;;;4.60;4.20;;;;;;;24.36;66.03;101490.05;106839;1267;22550;-47
2023/07/04 02:51:23;;;;;;;4.60;4.20;;;;;;;24.38;66.05;101489.98;107204;1263;25443;-48
2023/07/04 02:53:50;;;;;;;5.00;4.50;;;;;;;24.39;65.99;101489.53;106829;1256;22535;-47
2023/07/04 02:56:17;;;;;;;5.20;4.60;;;;;;;24.41;66.15;101491.02;107045;1260;25481;-48
2023/07/04 02:58:45;;;;;;;5.30;4.60;;;;;;;24.42;65.96;101492.68;107109;1267;25331;-47
2023/07/04 03:01:12;;;;;;;5.50;4.70;;;;;;;24.44;66.05;101491.69;107105;1267;25503;-47
2023/07/04 03:03:39;;;;;;;6.30;5.70;;;;;;;24.45;66.16;101490.20;107123;1251;22528;-48
2023/07/04 03:06:07;;;;;;;5.60;5.00;;;;;;;24.46;66.26;101491.33;107109;1254;23868;-47
2023/07/04 03:08:34;;;;;;;6.60;5.90;;;;;;;24.48;66.19;101490.15;107140;1269;24204;-47
2023/07/04 03:11:02;;;;;;;8.00;6.10;;;;;;;24.49;66.18;101494.33;106814;1266;25449;-49
2023/07/04 03:13:31;;;;;;;6.10;5.50;;;;;;;24.51;66.29;101498.27;107026;1266;25356;-48
2023/07/04 03:15:58;;;;;;;6.80;6.10;;;;;;;24.52;66.56;101495.72;107076;1257;24253;-48
2023/07/04 03:18:27;;;;;;;7.20;6.50;;;;;;;24.53;66.72;101492.09;106876;1266;25475;-48
2023/07/04 03:20:54;;;;;;;8.50;5.80;;;;;;;24.56;67.01;101491.55;107136;1256;23318;-48
2023/07/04 03:23:22;;;;;;;6.70;6.10;;;;;;;24.58;67.21;101494.56;107094;1263;25379;-48
2023/07/04 03:25:49;;;;;;;7.70;6.90;;;;;;;24.62;67.33;101493.45;107085;1263;25328;-48
2023/07/04 03:28:17;;;;;;;7.90;6.90;;;;;;;24.65;67.49;101496.77;107164;1263;25442;-48
2023/07/04 03:30:45;;;;;;;8.10;7.20;;;;;;;24.69;67.76;101493.67;106962;1258;22546;-48
2023/07/04 03:33:13;;;;;;;7.40;6.70;;;;;;;24.72;67.89;101494.14;107045;1264;25860;-48
2023/07/04 03:35:40;;;;;;;11.70;7.80;;;;;;;24.76;67.95;101488.23;107037;1263;25347;-48
2023/07/04 03:38:24;;;;;;;8.40;7.60;;;;;;;24.81;68.17;101490.91;106848;1263;24260;-48
2023/07/04 03:40:51;;;;;;;7.10;6.50;;;;;;;24.86;68.54;101484.52;107180;1263;25322;-48
2023/07/04 03:43:19;;;;;;;8.10;7.10;;;;;;;24.95;69.46;101488.27;107109;1260;25405;-48
2023/07/04 03:45:49;;;;;;;7.80;7.00;;;;;;;25.15;70.60;101488.60;107068;1263;22544;-48
2023/07/04 03:48:16;;;;;;;7.20;6.50;;;;;;;25.50;71.16;101491.60;107145;1266;25420;-48
2023/07/04 03:50:44;;;;;;;6.20;5.60;;;;;;;25.97;70.51;101490.29;106849;1266;23240;-48
2023/07/04 03:53:12;;;;;;;5.70;5.20;;;;;;;26.43;69.01;101490.18;107119;1253;25359;-48
2023/07/04 03:55:39;;;;;;;5.90;5.30;;;;;;;26.88;67.30;101488.50;107120;1263;25503;-50
2023/07/04 03:58:06;;;;;;;6.40;5.20;;;;;;;27.28;65.93;101489.15;106956;1258;23864;-49
2023/07/04 04:00:34;;;;;;;6.20;5.30;;;;;;;27.62;64.35;101491.80;107076;1263;25481;-50
2023/07/04 04:03:01;;;;;;;6.70;5.40;;;;;;;27.87;63.27;101491.54;107052;1260;25334;-50
2023/07/04 04:05:29;;;;;;;5.50;5.00;;;;;;;28.05;62.64;101487.99;107119;1263;25439;-48
2023/07/04 04:07:56;;;;;;;6.10;4.80;;;;;;;28.18;61.83;101493.03;106893;1269;25309;-48
2023/07/04 04:10:23;;;;;;;6.10;4.50;;;;;;;28.23;60.93;101493.12;107129;1264;25407;-48
2023/07/04 04:12:50;;;;;;;7.70;5.20;;;;;;;28.20;60.31;101492.16;107124;1260;25341;-48
2023/07/04 04:15:18;;;;;;;6.70;5.50;;;;;;;28.10;60.45;101497.95;107073;1263;25404;-47
2023/07/04 04:17:45;;;;;;;7.70;5.50;;;;;;;27.98;60.40;101499.16;106992;1259;25395;-48
2023/07/04 04:20:13;;;;;;;8.00;5.70;;;;;;;27.83;60.77;101500.39;107048;1263;25405;-48
2023/07/04 04:22:45;;;;;;;5.90;5.30;;;;;;;27.68;61.20;101499.00;107118;1263;25343;-47
2023/07/04 04:25:13;;;;;;;5.80;5.30;;;;;;;27.53;61.77;101500.23;107107;1266;25405;-48
2023/07/04 04:27:40;;;;;;;7.10;5.90;;;;;;;27.37;62.24;101500.63;106873;1263;22664;-48
2023/07/04 04:30:09;;;;;;;5.60;5.10;;;;;;;27.24;62.46;101498.77;107153;1263;25443;-47
2023/07/04 04:32:38;;;;;;;6.60;5.30;;;;;;;27.12;62.69;101492.27;107236;1263;22792;-47
2023/07/04 04:35:06;;;;;;;5.50;5.00;;;;;;;27.02;62.69;101491.42;107120;1254;22729;-48
2023/07/04 04:37:34;;;;;;;9.60;5.70;;;;;;;26.93;62.91;101485.25;106847;1256;25594;-48
2023/07/04 04:40:01;;;;;;;7.10;5.70;;;;;;;26.82;63.14;101486.41;107178;1260;23123;-48
2023/07/04 04:42:28;;;;;;;6.40;5.90;;;;;;;26.72;63.57;101485.23;107121;1267;25313;-47
2023/07/04 04:44:55;;;;;;;6.50;5.30;;;;;;;26.65;63.98;101488.10;107204;1263;25356;-47
2023/07/04 04:47:24;;;;;;;6.00;5.20;;;;;;;26.59;64.42;101488.92;107085;1264;25341;-47
2023/07/04 04:49:51;;;;;;;6.10;5.50;;;;;;;26.53;64.20;101496.33;107138;1267;22596;-48
2023/07/04 04:52:19;;;;;;;7.00;5.50;;;;;;;26.47;64.31;101498.78;107097;1262;25356;-48
2023/07/04 04:54:47;;;;;;;6.20;5.60;;;;;;;26.43;64.68;101496.10;107071;1254;25331;-48
2023/07/04 04:57:15;;;;;;;6.20;5.60;;;;;;;26.41;64.65;101493.76;106897;1259;24247;-48
2023/07/04 04:59:43;;;;;;;6.30;5.70;;;;;;;26.39;64.69;101498.69;106866;1263;25312;-48
2023/07/04 05:02:10;;;;;;;8.60;5.30;;;;;;;26.39;65.02;101499.38;107093;1260;25443;-48
2023/07/04 05:04:37;;;;;;;6.00;5.50;;;;;;;26.41;64.85;101500.09;107075;1259;25389;-48
2023/07/04 05:07:04;;;;;;;5.70;5.20;;;;;;;26.47;64.90;101502.66;107185;1263;25477;-48
2023/07/04 05:09:32;;;;;;;5.80;5.30;;;;;;;26.56;64.58;101500.52;107168;1254;25331;-48
2023/07/04 05:12:03;;;;;;;5.40;4.90;;;;;;;26.70;64.37;101505.73;107151;1263;25404;-48
2023/07/04 05:14:31;;;;;;;6.50;5.10;;;;;;;26.90;63.91;101507.20;107157;1263;22537;-48
2023/07/04 05:16:58;;;;;;;6.00;5.00;;;;;;;27.15;63.66;101508.05;107188;1264;25501;-48
2023/07/04 05:19:25;;;;;;;4.90;4.50;;;;;;;27.45;63.02;101505.99;107113;1260;25340;-48
2023/07/04 05:21:52;;;;;;;5.50;4.90;;;;;;;27.81;61.67;101514.31;107161;1263;25318;-48
2023/07/04 05:24:19;;;;;;;5.90;5.10;;;;;;;28.21;60.88;101513.11;107105;1264;23314;-48
2023/07/04 05:26:46;;;;;;;5.40;4.80;;;;;;;28.64;59.89;101513.90;107022;1263;25338;-48
2023/07/04 05:29:12;;;;;;;5.60;4.50;;;;;;;29.04;58.32;101511.30;107195;1257;25369;-48
2023/07/04 05:31:41;;;;;;;4.70;4.30;;;;;;;29.42;57.23;101513.71;107098;1250;25441;-48
2023/07/04 05:34:08;;;;;;;4.90;4.50;;;;;;;29.73;56.03;101514.62;107134;1263;25321;-48
2023/07/04 05:36:37;;;;;;;5.60;4.80;;;;;;;29.97;54.93;101514.38;107112;1254;25321;-49
2023/07/04 05:39:06;;;;;;;5.20;4.80;;;;;;;30.11;54.35;101511.28;107110;1263;25404;-48
2023/07/04 05:41:35;;;;;;;5.70;5.10;;;;;;;30.20;54.01;101512.44;107144;1263;24298;-48
2023/07/04 05:44:06;;;;;;;6.30;5.10;;;;;;;30.25;53.66;101508.21;107211;1260;25281;-48
2023/07/04 05:46:35;;;;;;;6.70;5.10;;;;;;;30.29;53.42;101505.89;107190;1263;25407;-48
2023/07/04 05:49:03;;;;;;;5.10;4.60;;;;;;;30.32;53.12;101509.37;107075;1266;25318;-48
2023/07/04 05:51:30;;;;;;;4.80;4.30;;;;;;;30.30;52.64;101512.58;106805;1259;25375;-48
2023/07/04 05:53:58;;;;;;;5.20;4.30;;;;;;;30.29;52.92;101512.65;107033;1254;25327;-48
2023/07/04 05:56:26;;;;;;;4.90;4.50;;;;;;;30.35;52.81;101514.64;107098;1257;25346;-48
2023/07/04 05:58:58;;;;;;;4.80;4.40;;;;;;;30.48;52.55;101514.67;107186;1256;24255;-47
2023/07/04 06:01:26;;;;;;;5.10;4.40;;;;;;;30.69;52.21;101517.89;107142;1263;25471;-48
2023/07/04 06:03:54;;;;;;;5.00;4.10;;;;;;;30.90;51.23;101520.55;106796;1267;25340;-48
2023/07/04 06:06:31;;;;;;;6.50;4.30;;;;;;;31.13;50.74;101518.17;106864;1256;25388;-48
2023/07/04 06:09:00;;;;;;;5.70;4.60;;;;;;;31.31;50.04;101517.28;107078;1256;25477;-48
2023/07/04 06:11:33;;;;;;;5.50;5.00;;;;;;;31.37;49.69;101519.23;107143;1263;22541;-48
2023/07/04 06:14:02;;;;;;;6.30;4.40;;;;;;;31.31;49.80;101524.08;107110;1255;25405;-47
2023/07/04 06:16:30;;;;;;;6.10;4.80;;;;;;;31.21;50.07;101522.34;107139;1260;25446;-47
2023/07/04 06:18:57;;;;;;;6.40;4.50;;;;;;;31.14;50.57;101525.98;107119;1254;25394;-47
2023/07/04 06:21:24;;;;;;;6.00;4.40;;;;;;;31.13;50.52;101526.77;107046;1263;25343;-47
2023/07/04 06:24:09;;;;;;;6.10;3.80;;;;;;;31.17;50.30;101525.98;106839;1269;25329;-47
2023/07/04 06:26:37;;;;;;;6.80;4.10;;;;;;;31.22;50.34;101527.28;107097;1263;25349;-47
2023/07/04 06:29:04;;;;;;;4.40;3.90;;;;;;;31.28;50.32;101527.27;107092;1263;25318;-47
2023/07/04 06:31:31;;;;;;;5.20;4.70;;;;;;;31.33;49.95;101524.98;106892;1269;25356;-47
2023/07/04 06:34:00;;;;;;;4.70;4.20;;;;;;;31.37;50.00;101527.66;107103;1257;25310;-47
2023/07/04 06:36:27;;;;;;;4.20;3.80;;;;;;;31.36;49.82;101529.66;106922;1269;25399;-47
2023/07/04 06:38:59;;;;;;;5.00;3.80;;;;;;;31.30;49.77;101531.36;106877;1267;25395;-47
2023/07/04 06:41:26;;;;;;;4.70;3.60;;;;;;;31.20;49.96;101526.59;106889;1273;25407;-47
2023/07/04 06:43:53;;;;;;;3.80;3.50;;;;;;;31.09;50.45;101523.91;107103;1267;25788;-47
2023/07/04 06:46:20;;;;;;;4.80;3.50;;;;;;;30.98;50.72;101527.98;107108;1263;25322;-48
2023/07/04 06:48:50;;;;;;;5.10;4.10;;;;;;;30.88;51.09;101530.45;106889;1266;24256;-47
2023/07/04 06:51:17;;;;;;;4.90;4.30;;;;;;;30.79;51.20;101535.39;107152;1267;22526;-47
2023/07/04 06:53:44;;;;;;;5.70;5.00;;;;;;;30.73;51.78;101537.41;107149;1263;22545;-47
2023/07/04 06:56:13;;;;;;;5.30;4.80;;;;;;;30.68;52.00;101536.23;106926;1266;25517;-47
2023/07/04 06:58:42;;;;;;;6.50;5.70;;;;;;;30.62;52.10;101536.98;106931;1270;25331;-47
2023/07/04 07:01:10;;;;;;;6.20;5.70;;;;;;;30.56;51.78;101539.92;107173;1262;25335;-47
2023/07/04 07:03:37;;;;;;;6.10;5.30;;;;;;;30.48;51.68;101544.70;107055;1266;25337;-47
2023/07/04 07:06:07;;;;;;;6.00;5.40;;;;;;;30.45;51.71;101545.38;107223;1254;26617;-47
2023/07/04 07:08:35;;;;;;;7.80;6.30;;;;;;;30.43;51.76;101545.40;107066;1260;22530;-47
2023/07/04 07:11:08;;;;;;;6.80;6.20;;;;;;;30.43;51.84;101541.64;107172;1263;23866;-48
2023/07/04 07:13:35;;;;;;;6.40;5.80;;;;;;;30.40;51.80;101546.54;107069;1254;25390;-48
2023/07/04 07:16:09;;;;;;;7.40;6.70;;;;;;;30.39;52.33;101545.75;106776;1262;25319;-48
2023/07/04 07:18:38;;;;;;;9.30;6.50;;;;;;;30.41;52.96;101545.23;107035;1257;25472;-48
2023/07/04 07:21:08;;;;;;;8.30;7.40;;;;;;;30.46;53.31;101543.46;106888;1267;24201;-48
2023/07/04 07:23:37;;;;;;;8.10;7.40;;;;;;;30.53;53.11;101542.52;107065;1269;22519;-47
2023/07/04 07:26:06;;;;;;;8.60;7.30;;;;;;;30.57;52.94;101543.94;106930;1259;25343;-48
2023/07/04 07:28:39;;;;;;;8.90;7.30;;;;;;;30.59;52.63;101549.64;107219;1254;25403;-48
2023/07/04 07:31:08;;;;;;;9.70;8.10;;;;;;;30.59;52.56;101552.85;106884;1272;25514;-48
2023/07/04 07:33:39;;;;;;;8.30;7.40;;;;;;;30.56;52.90;101555.15;107074;1267;25478;-48
2023/07/04 07:36:09;;;;;;;8.20;7.50;;;;;;;30.48;53.29;101557.26;106982;1267;214880;-48
2023/07/04 07:38:37;;;;;;;8.90;8.10;;;;;;;30.46;53.69;101558.49;106894;1272;24210;-48
2023/07/04 07:41:05;;;;;;;10.00;7.30;;;;;;;30.45;53.69;101561.46;107115;1267;25497;-48
2023/07/04 07:43:33;;;;;;;7.70;6.60;;;;;;;30.44;54.11;101562.98;107217;1267;25401;-48
2023/07/04 07:46:01;;;;;;;8.40;7.60;;;;;;;30.42;54.19;101564.26;107161;1263;25334;-47
2023/07/04 07:48:28;;;;;;;8.00;7.30;;;;;;;30.38;54.15;101563.25;107095;1256;25366;-48
2023/07/04 07:50:56;;;;;;;7.40;6.70;;;;;;;30.30;54.30;101563.75;107193;1263;23326;-48
2023/07/04 07:53:23;;;;;;;6.90;6.30;;;;;;;30.23;54.53;101570.55;107017;1270;25384;-49
2023/07/04 07:55:50;;;;;;;7.00;6.40;;;;;;;30.14;54.89;101573.65;107112;1261;22578;-50
2023/07/04 07:58:17;;;;;;;7.60;6.30;;;;;;;30.07;55.19;101575.23;106956;1266;25313;-51
2023/07/04 08:00:45;;;;;;;9.60;7.00;;;;;;;30.03;55.87;101579.30;106960;1266;25318;-50
2023/07/04 08:03:12;;;;;;;7.80;7.10;;;;;;;30.05;55.74;101579.88;106956;1260;25347;-48
2023/07/04 08:05:41;;;;;;;7.50;6.80;;;;;;;30.06;55.58;101579.41;106714;1270;25337;-48
2023/07/04 08:08:08;;;;;;;7.20;6.50;;;;;;;30.08;55.58;101583.56;107143;1262;25337;-48
2023/07/04 08:10:38;;;;;;;7.80;6.00;;;;;;;30.10;55.51;101585.14;107202;1263;25426;-48
2023/07/04 08:13:06;;;;;;;6.90;6.30;;;;;;;30.13;55.90;101581.13;107068;1273;25429;-48
2023/07/04 08:15:35;;;;;;;7.80;7.00;;;;;;;30.16;55.78;101581.16;107158;1263;25401;-47
2023/07/04 08:18:06;;;;;;;7.40;6.40;;;;;;;30.20;55.74;101586.55;106915;1267;25392;-48
2023/07/04 08:20:34;;;;;;;8.30;6.50;;;;;;;30.22;55.57;101590.08;107207;1263;25314;-48
2023/07/04 08:23:01;;;;;;;7.30;6.40;;;;;;;30.22;55.93;101595.27;107175;1263;25382;-49
2023/07/04 08:25:30;;;;;;;8.90;6.00;;;;;;;30.22;56.08;101602.27;106968;1270;25392;-48
2023/07/04 08:27:59;;;;;;;5.80;5.40;;;;;;;30.25;56.30;101599.09;107201;1267;25494;-49
2023/07/04 08:30:26;;;;;;;6.00;5.40;;;;;;;30.31;56.00;101598.45;107147;1264;25344;-48
2023/07/04 08:32:53;;;;;;;6.40;5.50;;;;;;;30.35;55.59;101593.91;106862;1266;25392;-48
2023/07/04 08:35:21;;;;;;;6.60;5.90;;;;;;;30.39;55.64;101593.75;107154;1256;25337;-48
2023/07/04 08:37:48;;;;;;;6.80;5.40;;;;;;;30.43;55.31;101592.99;107119;1263;25356;-48
2023/07/04 08:40:15;;;;;;;5.70;5.10;;;;;;;30.48;55.16;101592.20;107034;1263;25347;-48
2023/07/04 08:42:43;;;;;;;7.70;5.40;;;;;;;30.52;55.38;101592.67;107136;1263;25309;-48
2023/07/04 08:45:14;;;;;;;7.00;5.10;;;;;;;30.57;55.31;101592.48;106991;1259;25356;-49
2023/07/04 08:47:42;;;;;;;6.40;5.00;;;;;;;30.62;55.35;101586.48;107243;1263;25388;-48
2023/07/04 08:50:19;;;;;;;6.70;5.00;;;;;;;30.67;54.98;101587.91;107117;1263;25343;-48
2023/07/04 08:53:15;;;;;;;5.70;5.00;;;;;;;30.73;54.89;101588.26;107171;1266;25360;-48
2023/07/04 08:56:21;;;;;;;6.10;5.40;;;;;;;30.79;54.49;101587.66;107074;1256;25325;-48
2023/07/04 08:59:05;;;;;;;6.20;5.10;;;;;;;30.82;54.06;101580.44;107069;1263;25478;-47
2023/07/04 09:02:05;;;;;;;5.70;5.20;;;;;;;30.83;54.13;101582.54;107105;1263;25346;-47
2023/07/04 09:04:46;;;;;;;7.60;5.10;;;;;;;30.80;53.96;101584.40;106314;1274;25491;-47
2023/07/04 09:07:24;;;;;;;5.40;5.00;;;;;;;30.75;54.32;101582.40;106434;1269;22769;-48
2023/07/04 09:09:53;;;;;;;6.70;6.00;;;;;;;30.71;54.44;101587.39;106566;1272;22670;-48
2023/07/04 09:12:20;;;;;;;5.50;5.00;;;;;;;30.69;54.24;101586.49;106666;1262;25329;-47
2023/07/04 09:14:59;;;;;;;5.70;5.00;;;;;;;30.68;54.32;101585.17;106699;1272;24246;-48
2023/07/04 09:17:31;;;;;;;5.60;5.10;;;;;;;30.65;54.53;101586.52;106588;1267;22543;-48
2023/07/04 09:19:58;;;;;;;5.40;4.90;;;;;;;30.63;54.80;101581.86;106387;1276;25320;-48
2023/07/04 09:22:26;;;;;;;7.80;5.50;;;;;;;30.62;54.90;101579.98;106662;1272;25402;-46
2023/07/04 09:24:53;;;;;;;5.70;5.10;;;;;;;30.61;55.04;101584.73;106449;1265;25318;-48
2023/07/04 09:27:21;;;;;;;5.50;5.00;;;;;;;30.60;54.80;101585.19;106681;1263;25475;-48
2023/07/04 09:29:48;;;;;;;5.30;4.70;;;;;;;30.61;54.77;101584.21;106669;1262;25335;-48
2023/07/04 09:32:16;;;;;;;5.60;4.90;;;;;;;30.60;54.82;101587.16;106649;1272;25393;-48
2023/07/04 09:34:50;;;;;;;5.60;4.80;;;;;;;30.60;54.97;101585.60;106542;1272;25325;-48
2023/07/04 09:37:19;;;;;;;5.80;4.50;;;;;;;30.60;55.15;101586.11;106567;1270;22659;-48
2023/07/04 09:39:57;;;;;;;6.10;4.60;;;;;;;30.61;55.30;101584.55;106584;1262;23383;-48
2023/07/04 09:42:39;;;;;;;7.40;4.40;;;;;;;30.63;55.01;101583.84;106661;1266;25328;-47
2023/07/04 09:45:20;;;;;;;5.20;4.30;;;;;;;30.61;54.80;101581.16;106858;1269;25477;-48
2023/07/04 09:47:47;;;;;;;7.00;4.90;;;;;;;30.59;54.95;101584.95;106846;1263;25350;-48
2023/07/04 09:50:16;;;;;;;5.40;4.40;;;;;;;30.59;54.97;101583.31;107141;1257;25356;-48
2023/07/04 09:52:44;;;;;;;4.60;4.20;;;;;;;30.60;55.09;101584.88;107189;1263;22524;-49
2023/07/04 09:55:24;;;;;;;4.30;4.00;;;;;;;30.66;55.46;101588.25;107057;1251;25309;-48
2023/07/04 09:57:51;;;;;;;4.40;4.00;;;;;;;30.73;55.53;101592.55;107150;1261;25478;-48
2023/07/04 10:00:24;;;;;;;4.20;3.80;;;;;;;30.82;55.67;101593.70;107108;1266;25318;-48
2023/07/04 10:03:03;;;;;;;4.60;4.20;;;;;;;30.89;55.31;101595.77;107161;1263;25389;-49
2023/07/04 10:05:32;;;;;;;5.80;4.20;;;;;;;30.96;55.12;101595.11;107114;1264;25318;-48
2023/07/04 10:08:06;;;;;;;4.20;3.80;;;;;;;31.01;55.04;101594.39;107224;1262;22628;-49
2023/07/04 10:10:37;;;;;;;5.00;4.30;;;;;;;31.08;54.87;101597.89;107153;1264;24354;-49
2023/07/04 10:13:06;;;;;;;4.40;3.90;;;;;;;31.15;54.82;101597.92;107196;1251;24244;-49
2023/07/04 10:15:41;;;;;;;4.70;4.20;;;;;;;31.20;54.57;101598.48;107076;1263;24454;-49
2023/07/04 10:18:29;;;;;;;5.30;4.10;;;;;;;31.26;54.30;101592.73;107079;1256;22523;-48
2023/07/04 10:20:58;;;;;;;4.10;3.80;;;;;;;31.30;54.16;101590.89;107121;1263;25383;-47
2023/07/04 10:23:26;;;;;;;4.70;3.90;;;;;;;31.34;54.06;101595.66;107174;1256;23887;-48
2023/07/04 10:25:58;;;;;;;5.60;4.50;;;;;;;31.38;53.90;101594.83;107207;1263;24261;-48
2023/07/04 10:28:26;;;;;;;4.00;3.70;;;;;;;31.42;53.38;101595.14;106830;1267;25331;-48
2023/07/04 10:31:02;;;;;;;4.40;3.90;;;;;;;31.45;53.51;101593.25;107089;1269;25369;-48
2023/07/04 10:33:36;;;;;;;4.00;3.60;;;;;;;31.48;52.94;101591.84;107108;1256;22629;-48
2023/07/04 10:36:06;;;;;;;4.60;4.20;;;;;;;31.50;52.66;101592.06;107151;1266;25334;-48
2023/07/04 10:38:41;;;;;;;5.40;3.70;;;;;;;31.49;52.74;101596.55;107213;1263;25472;-48
2023/07/04 10:41:22;;;;;;;6.00;4.10;;;;;;;31.50;52.81;101595.80;106821;1266;24410;-48
2023/07/04 10:43:54;;;;;;;4.90;3.60;;;;;;;31.50;52.65;101593.61;107095;1261;25319;-48
2023/07/04 10:46:24;;;;;;;3.70;3.30;;;;;;;31.50;52.41;101590.81;107115;1251;25426;-48
2023/07/04 10:48:58;;;;;;;4.30;3.40;;;;;;;31.50;52.52;101591.33;107144;1267;25323;-48
2023/07/04 10:51:31;;;;;;;3.90;3.50;;;;;;;31.51;52.33;101591.77;107143;1267;25374;-47
2023/07/04 10:53:58;;;;;;;3.90;3.50;;;;;;;31.52;52.42;101588.80;106844;1264;25287;-48
2023/07/04 10:56:32;;;;;;;4.90;3.50;;;;;;;31.54;52.18;101586.98;107129;1266;25389;-48
2023/07/04 10:59:11;;;;;;;3.40;3.10;;;;;;;31.56;52.02;101584.81;107132;1266;25359;-48
2023/07/04 11:01:44;;;;;;;7.70;3.80;;;;;;;31.59;51.94;101583.05;106993;1268;25346;-48
2023/07/04 11:04:19;;;;;;;4.50;3.70;;;;;;;31.62;51.97;101582.39;106849;1269;24383;-47
2023/07/04 11:06:59;;;;;;;4.20;3.80;;;;;;;31.66;52.23;101577.73;107134;1263;22653;-48
2023/07/04 11:09:26;;;;;;;5.10;3.00;;;;;;;31.70;51.99;101577.54;106877;1267;22625;-48
2023/07/04 11:12:01;;;;;;;5.40;3.30;;;;;;;31.73;51.85;101575.73;107162;1272;25591;-48
2023/07/04 11:14:29;;;;;;;3.30;3.10;;;;;;;31.77;51.62;101574.08;107222;1263;25230;-47
2023/07/04 11:16:58;;;;;;;4.00;3.30;;;;;;;31.79;51.20;101573.02;107107;1263;25323;-47
2023/07/04 11:19:32;;;;;;;4.70;3.40;;;;;;;31.79;51.14;101575.50;107158;1267;25346;-48
2023/07/04 11:22:00;;;;;;;6.20;3.10;;;;;;;31.80;51.06;101574.15;107204;1263;26474;-49
2023/07/04 11:24:44;;;;;;;3.80;3.40;;;;;;;31.79;51.00;101570.31;107128;1268;25465;-49
2023/07/04 11:27:25;;;;;;;3.40;3.10;;;;;;;31.78;50.70;101568.81;107120;1266;22516;-48
2023/07/04 11:29:57;;;;;;;4.50;3.30;;;;;;;31.77;50.92;101568.54;107113;1263;22535;-48